sensor_id;sensor_type;location;lat;lon;timestamp;P1;durP1;ratioP1;P2;durP2;ratioP2
18623;SDS011;9441;51.420;7.036;2024-03-07T00:00:39;83.10;;;32.23;;
18623;SDS011;9441;51.420;7.036;2024-03-07T00:01:40;76.13;;;32.87;;
18623;SDS011;9441;51.420;7.036;2024-03-07T00:02:43;76.23;;;31.20;;
18623;SDS011;9441;51.420;7.036;2024-03-07T00:03:45;80.00;;;32.17;;
18623;SDS011;9441;51.420;7.036;2024-03-07T00:04:46;89.30;;;32.80;;
18623;SDS011;9441;51.420;7.036;2024-03-07T00:05:48;91.20;;;34.40;;
18623;SDS011;9441;51.420;7.036;2024-03-07T00:06:49;93.60;;;33.60;;
18623;SDS011;9441;51.420;7.036;2024-03-07T00:07:51;82.73;;;33.53;;
18623;SDS011;9441;51.420;7.036;2024-03-07T00:08:52;80.63;;;32.13;;
18623;SDS011;9441;51.420;7.036;2024-03-07T00:09:55;84.93;;;32.17;;
18623;SDS011;9441;51.420;7.036;2024-03-07T00:10:56;83.23;;;31.57;;
18623;SDS011;9441;51.420;7.036;2024-03-07T00:11:58;97.00;;;33.73;;
18623;SDS011;9441;51.420;7.036;2024-03-07T00:12:59;85.50;;;32.33;;
18623;SDS011;9441;51.420;7.036;2024-03-07T00:14:01;92.30;;;33.60;;
18623;SDS011;9441;51.420;7.036;2024-03-07T00:15:02;86.60;;;33.53;;
18623;SDS011;9441;51.420;7.036;2024-03-07T00:16:04;87.90;;;33.67;;
18623;SDS011;9441;51.420;7.036;2024-03-07T00:17:05;91.77;;;32.70;;
18623;SDS011;9441;51.420;7.036;2024-03-07T00:18:09;86.67;;;33.67;;
18623;SDS011;9441;51.420;7.036;2024-03-07T00:19:10;89.50;;;32.20;;
18623;SDS011;9441;51.420;7.036;2024-03-07T00:20:15;84.63;;;32.53;;
18623;SDS011;9441;51.420;7.036;2024-03-07T00:21:19;82.17;;;32.40;;
18623;SDS011;9441;51.420;7.036;2024-03-07T00:22:21;86.03;;;32.23;;
18623;SDS011;9441;51.420;7.036;2024-03-07T00:23:22;83.17;;;32.53;;
18623;SDS011;9441;51.420;7.036;2024-03-07T00:24:23;85.43;;;32.70;;
18623;SDS011;9441;51.420;7.036;2024-03-07T00:25:27;83.17;;;32.07;;
18623;SDS011;9441;51.420;7.036;2024-03-07T00:26:31;86.57;;;32.67;;
18623;SDS011;9441;51.420;7.036;2024-03-07T00:27:33;81.47;;;31.93;;
18623;SDS011;9441;51.420;7.036;2024-03-07T00:28:34;91.43;;;34.93;;
18623;SDS011;9441;51.420;7.036;2024-03-07T00:29:39;83.67;;;32.63;;
18623;SDS011;9441;51.420;7.036;2024-03-07T00:30:40;89.03;;;33.37;;
18623;SDS011;9441;51.420;7.036;2024-03-07T00:31:45;84.07;;;33.30;;
18623;SDS011;9441;51.420;7.036;2024-03-07T00:32:46;87.47;;;31.43;;
18623;SDS011;9441;51.420;7.036;2024-03-07T00:33:50;76.87;;;31.40;;
18623;SDS011;9441;51.420;7.036;2024-03-07T00:34:51;87.13;;;33.43;;
18623;SDS011;9441;51.420;7.036;2024-03-07T00:35:53;91.93;;;33.97;;
18623;SDS011;9441;51.420;7.036;2024-03-07T00:36:54;84.77;;;33.33;;
18623;SDS011;9441;51.420;7.036;2024-03-07T00:37:56;86.97;;;34.27;;
18623;SDS011;9441;51.420;7.036;2024-03-07T00:38:57;83.57;;;32.77;;
18623;SDS011;9441;51.420;7.036;2024-03-07T00:40:00;94.17;;;34.87;;
18623;SDS011;9441;51.420;7.036;2024-03-07T00:41:03;87.90;;;31.57;;
18623;SDS011;9441;51.420;7.036;2024-03-07T00:42:04;83.70;;;31.87;;
18623;SDS011;9441;51.420;7.036;2024-03-07T00:43:06;88.77;;;33.40;;
18623;SDS011;9441;51.420;7.036;2024-03-07T00:44:07;84.30;;;31.80;;
18623;SDS011;9441;51.420;7.036;2024-03-07T00:45:09;84.20;;;32.77;;
18623;SDS011;9441;51.420;7.036;2024-03-07T00:46:12;86.13;;;35.17;;
18623;SDS011;9441;51.420;7.036;2024-03-07T00:47:13;79.30;;;33.47;;
18623;SDS011;9441;51.420;7.036;2024-03-07T00:48:15;87.90;;;34.00;;
18623;SDS011;9441;51.420;7.036;2024-03-07T00:49:17;87.10;;;33.33;;
18623;SDS011;9441;51.420;7.036;2024-03-07T00:50:19;94.07;;;34.03;;
18623;SDS011;9441;51.420;7.036;2024-03-07T00:51:21;88.50;;;33.40;;
18623;SDS011;9441;51.420;7.036;2024-03-07T00:52:23;88.87;;;33.27;;
18623;SDS011;9441;51.420;7.036;2024-03-07T00:53:25;88.30;;;33.93;;
18623;SDS011;9441;51.420;7.036;2024-03-07T00:54:27;88.97;;;33.27;;
18623;SDS011;9441;51.420;7.036;2024-03-07T00:55:28;84.50;;;32.90;;
18623;SDS011;9441;51.420;7.036;2024-03-07T00:56:30;84.87;;;33.47;;
18623;SDS011;9441;51.420;7.036;2024-03-07T00:57:31;87.33;;;33.07;;
18623;SDS011;9441;51.420;7.036;2024-03-07T00:58:33;82.17;;;33.37;;
18623;SDS011;9441;51.420;7.036;2024-03-07T00:59:35;82.30;;;32.43;;
18623;SDS011;9441;51.420;7.036;2024-03-07T01:00:36;77.47;;;32.00;;
18623;SDS011;9441;51.420;7.036;2024-03-07T01:01:38;90.10;;;32.93;;
18623;SDS011;9441;51.420;7.036;2024-03-07T01:02:41;81.93;;;33.23;;
18623;SDS011;9441;51.420;7.036;2024-03-07T01:03:44;83.40;;;31.57;;
18623;SDS011;9441;51.420;7.036;2024-03-07T01:04:47;85.83;;;33.63;;
18623;SDS011;9441;51.420;7.036;2024-03-07T01:05:49;80.97;;;32.97;;
18623;SDS011;9441;51.420;7.036;2024-03-07T01:06:50;86.57;;;34.07;;
18623;SDS011;9441;51.420;7.036;2024-03-07T01:07:52;90.10;;;33.00;;
18623;SDS011;9441;51.420;7.036;2024-03-07T01:08:53;89.30;;;33.57;;
18623;SDS011;9441;51.420;7.036;2024-03-07T01:09:55;86.53;;;34.60;;
18623;SDS011;9441;51.420;7.036;2024-03-07T01:10:56;83.90;;;32.33;;
18623;SDS011;9441;51.420;7.036;2024-03-07T01:11:58;83.77;;;32.63;;
18623;SDS011;9441;51.420;7.036;2024-03-07T01:12:59;93.93;;;34.20;;
18623;SDS011;9441;51.420;7.036;2024-03-07T01:14:02;88.27;;;33.57;;
18623;SDS011;9441;51.420;7.036;2024-03-07T01:15:03;86.03;;;33.67;;
18623;SDS011;9441;51.420;7.036;2024-03-07T01:16:06;93.03;;;35.13;;
18623;SDS011;9441;51.420;7.036;2024-03-07T01:17:07;91.90;;;35.83;;
18623;SDS011;9441;51.420;7.036;2024-03-07T01:18:09;98.73;;;37.37;;
18623;SDS011;9441;51.420;7.036;2024-03-07T01:19:10;93.30;;;36.80;;
18623;SDS011;9441;51.420;7.036;2024-03-07T01:20:13;96.50;;;35.00;;
18623;SDS011;9441;51.420;7.036;2024-03-07T01:21:14;91.20;;;35.30;;
18623;SDS011;9441;51.420;7.036;2024-03-07T01:22:16;94.93;;;35.47;;
18623;SDS011;9441;51.420;7.036;2024-03-07T01:23:17;94.20;;;35.67;;
18623;SDS011;9441;51.420;7.036;2024-03-07T01:24:19;94.67;;;35.17;;
18623;SDS011;9441;51.420;7.036;2024-03-07T01:25:20;97.87;;;35.23;;
18623;SDS011;9441;51.420;7.036;2024-03-07T01:26:22;95.07;;;35.20;;
18623;SDS011;9441;51.420;7.036;2024-03-07T01:27:25;81.83;;;33.47;;
18623;SDS011;9441;51.420;7.036;2024-03-07T01:28:27;87.37;;;33.67;;
18623;SDS011;9441;51.420;7.036;2024-03-07T01:29:30;92.63;;;33.00;;
18623;SDS011;9441;51.420;7.036;2024-03-07T01:30:32;87.40;;;33.67;;
18623;SDS011;9441;51.420;7.036;2024-03-07T01:31:33;79.27;;;33.53;;
18623;SDS011;9441;51.420;7.036;2024-03-07T01:32:35;89.67;;;34.93;;
18623;SDS011;9441;51.420;7.036;2024-03-07T01:33:36;82.83;;;33.70;;
18623;SDS011;9441;51.420;7.036;2024-03-07T01:34:38;87.83;;;33.07;;
18623;SDS011;9441;51.420;7.036;2024-03-07T01:35:40;86.03;;;33.73;;
18623;SDS011;9441;51.420;7.036;2024-03-07T01:36:42;85.53;;;33.50;;
18623;SDS011;9441;51.420;7.036;2024-03-07T01:37:44;86.57;;;34.97;;
18623;SDS011;9441;51.420;7.036;2024-03-07T01:38:46;86.37;;;35.37;;
18623;SDS011;9441;51.420;7.036;2024-03-07T01:39:47;86.17;;;34.67;;
18623;SDS011;9441;51.420;7.036;2024-03-07T01:40:49;85.53;;;33.53;;
18623;SDS011;9441;51.420;7.036;2024-03-07T01:41:50;88.00;;;35.20;;
18623;SDS011;9441;51.420;7.036;2024-03-07T01:42:52;94.93;;;35.93;;
18623;SDS011;9441;51.420;7.036;2024-03-07T01:43:54;95.80;;;37.13;;
18623;SDS011;9441;51.420;7.036;2024-03-07T01:44:56;91.63;;;35.97;;
18623;SDS011;9441;51.420;7.036;2024-03-07T01:45:57;90.03;;;37.20;;
18623;SDS011;9441;51.420;7.036;2024-03-07T01:47:00;84.90;;;35.63;;
18623;SDS011;9441;51.420;7.036;2024-03-07T01:48:03;98.80;;;36.27;;
18623;SDS011;9441;51.420;7.036;2024-03-07T01:49:06;81.00;;;32.97;;
18623;SDS011;9441;51.420;7.036;2024-03-07T01:50:08;82.20;;;31.87;;
18623;SDS011;9441;51.420;7.036;2024-03-07T01:51:11;88.70;;;33.80;;
18623;SDS011;9441;51.420;7.036;2024-03-07T01:52:13;86.17;;;33.53;;
18623;SDS011;9441;51.420;7.036;2024-03-07T01:53:16;88.77;;;32.50;;
18623;SDS011;9441;51.420;7.036;2024-03-07T01:54:17;88.67;;;33.77;;
18623;SDS011;9441;51.420;7.036;2024-03-07T01:55:19;89.73;;;34.67;;
18623;SDS011;9441;51.420;7.036;2024-03-07T01:56:21;96.07;;;35.60;;
18623;SDS011;9441;51.420;7.036;2024-03-07T01:57:24;88.90;;;35.47;;
18623;SDS011;9441;51.420;7.036;2024-03-07T01:58:26;95.70;;;36.73;;
18623;SDS011;9441;51.420;7.036;2024-03-07T01:59:28;98.90;;;36.63;;
18623;SDS011;9441;51.420;7.036;2024-03-07T02:00:30;107.43;;;38.40;;
18623;SDS011;9441;51.420;7.036;2024-03-07T02:01:32;86.67;;;34.13;;
18623;SDS011;9441;51.420;7.036;2024-03-07T02:02:34;89.40;;;35.63;;
18623;SDS011;9441;51.420;7.036;2024-03-07T02:03:36;94.07;;;34.90;;
18623;SDS011;9441;51.420;7.036;2024-03-07T02:04:37;98.83;;;36.43;;
18623;SDS011;9441;51.420;7.036;2024-03-07T02:05:39;92.63;;;37.03;;
18623;SDS011;9441;51.420;7.036;2024-03-07T02:06:41;94.67;;;35.03;;
18623;SDS011;9441;51.420;7.036;2024-03-07T02:07:43;94.63;;;35.53;;
18623;SDS011;9441;51.420;7.036;2024-03-07T02:08:44;112.53;;;39.20;;
18623;SDS011;9441;51.420;7.036;2024-03-07T02:09:48;107.03;;;37.80;;
18623;SDS011;9441;51.420;7.036;2024-03-07T02:10:49;95.37;;;36.77;;
18623;SDS011;9441;51.420;7.036;2024-03-07T02:11:51;91.97;;;35.97;;
18623;SDS011;9441;51.420;7.036;2024-03-07T02:12:52;120.13;;;38.77;;
18623;SDS011;9441;51.420;7.036;2024-03-07T02:13:53;116.50;;;41.00;;
18623;SDS011;9441;51.420;7.036;2024-03-07T02:14:55;117.50;;;42.77;;
18623;SDS011;9441;51.420;7.036;2024-03-07T02:15:57;105.27;;;39.33;;
18623;SDS011;9441;51.420;7.036;2024-03-07T02:16:59;117.77;;;39.67;;
18623;SDS011;9441;51.420;7.036;2024-03-07T02:18:01;126.27;;;41.73;;
18623;SDS011;9441;51.420;7.036;2024-03-07T02:19:03;113.07;;;40.20;;
18623;SDS011;9441;51.420;7.036;2024-03-07T02:20:04;103.63;;;38.13;;
18623;SDS011;9441;51.420;7.036;2024-03-07T02:21:09;105.40;;;38.50;;
18623;SDS011;9441;51.420;7.036;2024-03-07T02:22:11;125.30;;;41.03;;
18623;SDS011;9441;51.420;7.036;2024-03-07T02:23:13;138.87;;;41.90;;
18623;SDS011;9441;51.420;7.036;2024-03-07T02:24:15;123.70;;;41.77;;
18623;SDS011;9441;51.420;7.036;2024-03-07T02:25:17;120.20;;;40.33;;
18623;SDS011;9441;51.420;7.036;2024-03-07T02:26:18;121.80;;;40.03;;
18623;SDS011;9441;51.420;7.036;2024-03-07T02:27:20;148.73;;;40.07;;
18623;SDS011;9441;51.420;7.036;2024-03-07T02:28:21;112.47;;;40.27;;
18623;SDS011;9441;51.420;7.036;2024-03-07T02:29:23;108.10;;;38.27;;
18623;SDS011;9441;51.420;7.036;2024-03-07T02:30:24;111.37;;;39.70;;
18623;SDS011;9441;51.420;7.036;2024-03-07T02:31:25;119.90;;;40.23;;
18623;SDS011;9441;51.420;7.036;2024-03-07T02:32:35;116.60;;;40.20;;
18623;SDS011;9441;51.420;7.036;2024-03-07T02:33:38;109.87;;;39.03;;
18623;SDS011;9441;51.420;7.036;2024-03-07T02:34:40;126.80;;;40.07;;
18623;SDS011;9441;51.420;7.036;2024-03-07T02:35:43;116.90;;;38.97;;
18623;SDS011;9441;51.420;7.036;2024-03-07T02:36:46;133.70;;;43.13;;
18623;SDS011;9441;51.420;7.036;2024-03-07T02:37:48;114.47;;;39.63;;
18623;SDS011;9441;51.420;7.036;2024-03-07T02:38:49;122.47;;;40.40;;
18623;SDS011;9441;51.420;7.036;2024-03-07T02:39:50;118.77;;;41.03;;
18623;SDS011;9441;51.420;7.036;2024-03-07T02:40:54;108.73;;;38.37;;
18623;SDS011;9441;51.420;7.036;2024-03-07T02:41:55;113.30;;;40.60;;
18623;SDS011;9441;51.420;7.036;2024-03-07T02:42:57;120.07;;;40.37;;
18623;SDS011;9441;51.420;7.036;2024-03-07T02:43:58;110.63;;;41.17;;
18623;SDS011;9441;51.420;7.036;2024-03-07T02:45:01;117.13;;;41.27;;
18623;SDS011;9441;51.420;7.036;2024-03-07T02:46:03;118.27;;;42.27;;
18623;SDS011;9441;51.420;7.036;2024-03-07T02:47:06;122.57;;;41.43;;
18623;SDS011;9441;51.420;7.036;2024-03-07T02:48:08;123.90;;;39.07;;
18623;SDS011;9441;51.420;7.036;2024-03-07T02:49:10;123.90;;;41.87;;
18623;SDS011;9441;51.420;7.036;2024-03-07T02:50:11;136.33;;;38.43;;
18623;SDS011;9441;51.420;7.036;2024-03-07T02:51:13;139.40;;;40.50;;
18623;SDS011;9441;51.420;7.036;2024-03-07T02:52:16;116.40;;;38.60;;
18623;SDS011;9441;51.420;7.036;2024-03-07T02:53:18;127.20;;;39.17;;
18623;SDS011;9441;51.420;7.036;2024-03-07T02:54:19;122.63;;;38.67;;
18623;SDS011;9441;51.420;7.036;2024-03-07T02:55:21;112.30;;;37.73;;
18623;SDS011;9441;51.420;7.036;2024-03-07T02:56:22;119.40;;;38.60;;
18623;SDS011;9441;51.420;7.036;2024-03-07T02:57:25;128.10;;;38.67;;
18623;SDS011;9441;51.420;7.036;2024-03-07T02:58:26;125.80;;;36.27;;
18623;SDS011;9441;51.420;7.036;2024-03-07T02:59:28;100.37;;;36.93;;
18623;SDS011;9441;51.420;7.036;2024-03-07T03:00:29;107.63;;;38.30;;
18623;SDS011;9441;51.420;7.036;2024-03-07T03:01:31;114.33;;;37.93;;
18623;SDS011;9441;51.420;7.036;2024-03-07T03:02:32;113.47;;;36.83;;
18623;SDS011;9441;51.420;7.036;2024-03-07T03:03:33;113.67;;;37.60;;
18623;SDS011;9441;51.420;7.036;2024-03-07T03:04:35;98.17;;;35.53;;
18623;SDS011;9441;51.420;7.036;2024-03-07T03:05:36;97.50;;;37.03;;
18623;SDS011;9441;51.420;7.036;2024-03-07T03:06:39;92.90;;;36.93;;
18623;SDS011;9441;51.420;7.036;2024-03-07T03:07:42;100.40;;;37.17;;
18623;SDS011;9441;51.420;7.036;2024-03-07T03:08:44;103.13;;;36.13;;
18623;SDS011;9441;51.420;7.036;2024-03-07T03:09:46;105.63;;;36.83;;
18623;SDS011;9441;51.420;7.036;2024-03-07T03:10:47;94.87;;;36.13;;
18623;SDS011;9441;51.420;7.036;2024-03-07T03:11:51;97.80;;;35.57;;
18623;SDS011;9441;51.420;7.036;2024-03-07T03:12:52;94.40;;;35.37;;
18623;SDS011;9441;51.420;7.036;2024-03-07T03:13:56;89.80;;;35.80;;
18623;SDS011;9441;51.420;7.036;2024-03-07T03:14:57;118.93;;;36.50;;
18623;SDS011;9441;51.420;7.036;2024-03-07T03:15:59;86.13;;;35.13;;
18623;SDS011;9441;51.420;7.036;2024-03-07T03:17:00;103.57;;;36.77;;
18623;SDS011;9441;51.420;7.036;2024-03-07T03:18:03;99.60;;;36.10;;
18623;SDS011;9441;51.420;7.036;2024-03-07T03:19:05;105.70;;;36.03;;
18623;SDS011;9441;51.420;7.036;2024-03-07T03:20:09;98.63;;;33.40;;
18623;SDS011;9441;51.420;7.036;2024-03-07T03:21:24;90.80;;;35.37;;
18623;SDS011;9441;51.420;7.036;2024-03-07T03:22:26;99.03;;;35.13;;
18623;SDS011;9441;51.420;7.036;2024-03-07T03:23:28;105.10;;;35.83;;
18623;SDS011;9441;51.420;7.036;2024-03-07T03:24:30;94.80;;;34.90;;
18623;SDS011;9441;51.420;7.036;2024-03-07T03:25:32;88.30;;;35.87;;
18623;SDS011;9441;51.420;7.036;2024-03-07T03:26:35;106.37;;;37.13;;
18623;SDS011;9441;51.420;7.036;2024-03-07T03:27:36;92.47;;;36.17;;
18623;SDS011;9441;51.420;7.036;2024-03-07T03:28:39;106.70;;;36.47;;
18623;SDS011;9441;51.420;7.036;2024-03-07T03:29:41;101.73;;;35.20;;
18623;SDS011;9441;51.420;7.036;2024-03-07T03:30:45;90.93;;;35.23;;
18623;SDS011;9441;51.420;7.036;2024-03-07T03:31:47;102.77;;;36.27;;
18623;SDS011;9441;51.420;7.036;2024-03-07T03:32:49;101.80;;;37.20;;
18623;SDS011;9441;51.420;7.036;2024-03-07T03:33:50;82.13;;;36.03;;
18623;SDS011;9441;51.420;7.036;2024-03-07T03:34:52;108.07;;;37.63;;
18623;SDS011;9441;51.420;7.036;2024-03-07T03:35:53;89.40;;;36.57;;
18623;SDS011;9441;51.420;7.036;2024-03-07T03:36:55;90.70;;;36.67;;
18623;SDS011;9441;51.420;7.036;2024-03-07T03:37:57;90.73;;;36.93;;
18623;SDS011;9441;51.420;7.036;2024-03-07T03:38:59;89.07;;;35.93;;
18623;SDS011;9441;51.420;7.036;2024-03-07T03:40:01;94.43;;;36.40;;
18623;SDS011;9441;51.420;7.036;2024-03-07T03:41:05;94.30;;;35.97;;
18623;SDS011;9441;51.420;7.036;2024-03-07T03:42:07;90.67;;;36.57;;
18623;SDS011;9441;51.420;7.036;2024-03-07T03:43:08;95.20;;;36.47;;
18623;SDS011;9441;51.420;7.036;2024-03-07T03:44:10;85.23;;;36.50;;
18623;SDS011;9441;51.420;7.036;2024-03-07T03:45:11;89.67;;;35.47;;
18623;SDS011;9441;51.420;7.036;2024-03-07T03:46:15;96.40;;;36.33;;
18623;SDS011;9441;51.420;7.036;2024-03-07T03:47:16;98.97;;;37.00;;
18623;SDS011;9441;51.420;7.036;2024-03-07T03:48:19;118.90;;;36.67;;
18623;SDS011;9441;51.420;7.036;2024-03-07T03:49:20;102.43;;;36.57;;
18623;SDS011;9441;51.420;7.036;2024-03-07T03:50:22;100.03;;;36.47;;
18623;SDS011;9441;51.420;7.036;2024-03-07T03:51:23;97.00;;;36.83;;
18623;SDS011;9441;51.420;7.036;2024-03-07T03:52:25;97.10;;;37.90;;
18623;SDS011;9441;51.420;7.036;2024-03-07T03:53:26;94.40;;;37.20;;
18623;SDS011;9441;51.420;7.036;2024-03-07T03:54:29;86.87;;;36.27;;
18623;SDS011;9441;51.420;7.036;2024-03-07T03:55:31;94.87;;;37.97;;
18623;SDS011;9441;51.420;7.036;2024-03-07T03:56:33;104.90;;;36.20;;
18623;SDS011;9441;51.420;7.036;2024-03-07T03:57:34;96.03;;;36.33;;
18623;SDS011;9441;51.420;7.036;2024-03-07T03:58:37;113.43;;;37.63;;
18623;SDS011;9441;51.420;7.036;2024-03-07T03:59:42;125.63;;;36.57;;
18623;SDS011;9441;51.420;7.036;2024-03-07T04:00:44;194.10;;;39.93;;
18623;SDS011;9441;51.420;7.036;2024-03-07T04:01:45;117.43;;;37.87;;
18623;SDS011;9441;51.420;7.036;2024-03-07T04:02:48;161.33;;;40.17;;
18623;SDS011;9441;51.420;7.036;2024-03-07T04:03:49;105.47;;;37.10;;
18623;SDS011;9441;51.420;7.036;2024-03-07T04:04:51;111.07;;;38.30;;
18623;SDS011;9441;51.420;7.036;2024-03-07T04:05:53;119.23;;;38.60;;
18623;SDS011;9441;51.420;7.036;2024-03-07T04:06:55;144.23;;;39.40;;
18623;SDS011;9441;51.420;7.036;2024-03-07T04:07:56;99.30;;;38.83;;
18623;SDS011;9441;51.420;7.036;2024-03-07T04:08:59;111.00;;;39.07;;
18623;SDS011;9441;51.420;7.036;2024-03-07T04:10:01;111.47;;;36.97;;
18623;SDS011;9441;51.420;7.036;2024-03-07T04:11:04;137.97;;;38.40;;
18623;SDS011;9441;51.420;7.036;2024-03-07T04:12:05;114.30;;;39.27;;
18623;SDS011;9441;51.420;7.036;2024-03-07T04:13:10;113.60;;;38.73;;
18623;SDS011;9441;51.420;7.036;2024-03-07T04:14:11;109.10;;;38.37;;
18623;SDS011;9441;51.420;7.036;2024-03-07T04:15:15;114.20;;;38.03;;
18623;SDS011;9441;51.420;7.036;2024-03-07T04:16:16;128.43;;;37.83;;
18623;SDS011;9441;51.420;7.036;2024-03-07T04:17:19;116.67;;;38.73;;
18623;SDS011;9441;51.420;7.036;2024-03-07T04:18:21;104.40;;;39.30;;
18623;SDS011;9441;51.420;7.036;2024-03-07T04:19:23;100.33;;;37.77;;
18623;SDS011;9441;51.420;7.036;2024-03-07T04:20:24;103.67;;;40.17;;
18623;SDS011;9441;51.420;7.036;2024-03-07T04:21:26;106.03;;;39.17;;
18623;SDS011;9441;51.420;7.036;2024-03-07T04:22:27;101.73;;;40.30;;
18623;SDS011;9441;51.420;7.036;2024-03-07T04:23:29;100.80;;;39.17;;
18623;SDS011;9441;51.420;7.036;2024-03-07T04:24:30;100.27;;;40.40;;
18623;SDS011;9441;51.420;7.036;2024-03-07T04:25:34;102.27;;;37.03;;
18623;SDS011;9441;51.420;7.036;2024-03-07T04:26:35;101.50;;;39.10;;
18623;SDS011;9441;51.420;7.036;2024-03-07T04:27:38;104.93;;;39.27;;
18623;SDS011;9441;51.420;7.036;2024-03-07T04:28:40;99.33;;;39.33;;
18623;SDS011;9441;51.420;7.036;2024-03-07T04:29:42;99.03;;;38.43;;
18623;SDS011;9441;51.420;7.036;2024-03-07T04:30:43;97.13;;;38.80;;
18623;SDS011;9441;51.420;7.036;2024-03-07T04:31:45;102.33;;;39.40;;
18623;SDS011;9441;51.420;7.036;2024-03-07T04:32:46;94.57;;;38.63;;
18623;SDS011;9441;51.420;7.036;2024-03-07T04:33:49;91.30;;;36.80;;
18623;SDS011;9441;51.420;7.036;2024-03-07T04:34:51;95.90;;;38.80;;
18623;SDS011;9441;51.420;7.036;2024-03-07T04:35:52;95.53;;;39.43;;
18623;SDS011;9441;51.420;7.036;2024-03-07T04:36:55;97.13;;;38.33;;
18623;SDS011;9441;51.420;7.036;2024-03-07T04:37:58;95.17;;;39.43;;
18623;SDS011;9441;51.420;7.036;2024-03-07T04:38:59;102.67;;;38.37;;
18623;SDS011;9441;51.420;7.036;2024-03-07T04:40:05;99.17;;;38.00;;
18623;SDS011;9441;51.420;7.036;2024-03-07T04:41:16;92.20;;;35.83;;
18623;SDS011;9441;51.420;7.036;2024-03-07T04:42:19;95.53;;;36.60;;
18623;SDS011;9441;51.420;7.036;2024-03-07T04:43:20;95.27;;;37.13;;
18623;SDS011;9441;51.420;7.036;2024-03-07T04:44:22;92.20;;;38.60;;
18623;SDS011;9441;51.420;7.036;2024-03-07T04:45:23;99.43;;;37.37;;
18623;SDS011;9441;51.420;7.036;2024-03-07T04:46:25;91.67;;;36.83;;
18623;SDS011;9441;51.420;7.036;2024-03-07T04:47:26;118.03;;;37.77;;
18623;SDS011;9441;51.420;7.036;2024-03-07T04:48:28;91.23;;;38.07;;
18623;SDS011;9441;51.420;7.036;2024-03-07T04:49:29;107.53;;;38.90;;
18623;SDS011;9441;51.420;7.036;2024-03-07T04:50:31;98.57;;;39.73;;
18623;SDS011;9441;51.420;7.036;2024-03-07T04:51:32;100.63;;;38.47;;
18623;SDS011;9441;51.420;7.036;2024-03-07T04:52:34;104.90;;;38.33;;
18623;SDS011;9441;51.420;7.036;2024-03-07T04:53:35;97.23;;;39.17;;
18623;SDS011;9441;51.420;7.036;2024-03-07T04:54:42;107.53;;;39.33;;
18623;SDS011;9441;51.420;7.036;2024-03-07T04:55:43;92.97;;;37.27;;
18623;SDS011;9441;51.420;7.036;2024-03-07T04:56:46;118.93;;;39.93;;
18623;SDS011;9441;51.420;7.036;2024-03-07T04:57:48;90.63;;;38.33;;
18623;SDS011;9441;51.420;7.036;2024-03-07T04:58:50;120.40;;;36.43;;
18623;SDS011;9441;51.420;7.036;2024-03-07T04:59:51;99.27;;;38.87;;
18623;SDS011;9441;51.420;7.036;2024-03-07T05:00:52;99.47;;;36.97;;
18623;SDS011;9441;51.420;7.036;2024-03-07T05:01:53;124.80;;;36.80;;
18623;SDS011;9441;51.420;7.036;2024-03-07T05:02:55;116.53;;;37.13;;
18623;SDS011;9441;51.420;7.036;2024-03-07T05:03:57;154.27;;;39.03;;
18623;SDS011;9441;51.420;7.036;2024-03-07T05:04:59;86.57;;;37.10;;
18623;SDS011;9441;51.420;7.036;2024-03-07T05:06:00;89.50;;;36.93;;
18623;SDS011;9441;51.420;7.036;2024-03-07T05:07:02;102.07;;;37.97;;
18623;SDS011;9441;51.420;7.036;2024-03-07T05:08:04;90.77;;;36.83;;
18623;SDS011;9441;51.420;7.036;2024-03-07T05:09:06;92.77;;;37.10;;
18623;SDS011;9441;51.420;7.036;2024-03-07T05:10:09;101.70;;;39.30;;
18623;SDS011;9441;51.420;7.036;2024-03-07T05:11:11;97.00;;;38.97;;
18623;SDS011;9441;51.420;7.036;2024-03-07T05:12:14;101.03;;;38.77;;
18623;SDS011;9441;51.420;7.036;2024-03-07T05:13:16;92.33;;;37.70;;
18623;SDS011;9441;51.420;7.036;2024-03-07T05:14:17;96.50;;;38.10;;
18623;SDS011;9441;51.420;7.036;2024-03-07T05:15:18;97.27;;;38.77;;
18623;SDS011;9441;51.420;7.036;2024-03-07T05:16:20;103.17;;;38.47;;
18623;SDS011;9441;51.420;7.036;2024-03-07T05:17:21;95.27;;;36.80;;
18623;SDS011;9441;51.420;7.036;2024-03-07T05:18:23;100.33;;;37.93;;
18623;SDS011;9441;51.420;7.036;2024-03-07T05:19:24;92.07;;;37.80;;
18623;SDS011;9441;51.420;7.036;2024-03-07T05:20:28;98.37;;;36.70;;
18623;SDS011;9441;51.420;7.036;2024-03-07T05:21:28;95.60;;;36.33;;
18623;SDS011;9441;51.420;7.036;2024-03-07T05:22:40;92.57;;;36.70;;
18623;SDS011;9441;51.420;7.036;2024-03-07T05:23:44;97.43;;;38.40;;
18623;SDS011;9441;51.420;7.036;2024-03-07T05:24:46;94.87;;;37.70;;
18623;SDS011;9441;51.420;7.036;2024-03-07T05:25:48;105.30;;;37.10;;
18623;SDS011;9441;51.420;7.036;2024-03-07T05:26:50;97.57;;;37.07;;
18623;SDS011;9441;51.420;7.036;2024-03-07T05:27:54;101.27;;;39.50;;
18623;SDS011;9441;51.420;7.036;2024-03-07T05:28:56;88.87;;;37.83;;
18623;SDS011;9441;51.420;7.036;2024-03-07T05:29:57;89.10;;;37.10;;
18623;SDS011;9441;51.420;7.036;2024-03-07T05:30:59;102.13;;;38.43;;
18623;SDS011;9441;51.420;7.036;2024-03-07T05:32:19;98.37;;;37.40;;
18623;SDS011;9441;51.420;7.036;2024-03-07T05:33:22;94.67;;;36.90;;
18623;SDS011;9441;51.420;7.036;2024-03-07T05:34:23;94.17;;;37.53;;
18623;SDS011;9441;51.420;7.036;2024-03-07T05:35:28;98.23;;;38.07;;
18623;SDS011;9441;51.420;7.036;2024-03-07T05:36:30;100.43;;;39.20;;
18623;SDS011;9441;51.420;7.036;2024-03-07T05:37:32;94.10;;;36.90;;
18623;SDS011;9441;51.420;7.036;2024-03-07T05:38:33;92.30;;;38.90;;
18623;SDS011;9441;51.420;7.036;2024-03-07T05:39:37;87.80;;;37.47;;
18623;SDS011;9441;51.420;7.036;2024-03-07T05:40:38;87.83;;;36.43;;
18623;SDS011;9441;51.420;7.036;2024-03-07T05:41:40;89.10;;;36.73;;
18623;SDS011;9441;51.420;7.036;2024-03-07T05:42:42;85.97;;;36.43;;
18623;SDS011;9441;51.420;7.036;2024-03-07T05:43:45;86.07;;;37.07;;
18623;SDS011;9441;51.420;7.036;2024-03-07T05:44:46;89.90;;;36.87;;
18623;SDS011;9441;51.420;7.036;2024-03-07T05:45:48;91.57;;;38.17;;
18623;SDS011;9441;51.420;7.036;2024-03-07T05:46:49;87.27;;;37.83;;
18623;SDS011;9441;51.420;7.036;2024-03-07T05:47:51;88.37;;;35.43;;
18623;SDS011;9441;51.420;7.036;2024-03-07T05:48:52;90.53;;;36.63;;
18623;SDS011;9441;51.420;7.036;2024-03-07T05:49:56;85.23;;;35.37;;
18623;SDS011;9441;51.420;7.036;2024-03-07T05:50:58;93.83;;;37.17;;
18623;SDS011;9441;51.420;7.036;2024-03-07T05:51:59;92.17;;;36.00;;
18623;SDS011;9441;51.420;7.036;2024-03-07T05:53:01;87.70;;;35.57;;
18623;SDS011;9441;51.420;7.036;2024-03-07T05:54:02;82.80;;;35.23;;
18623;SDS011;9441;51.420;7.036;2024-03-07T05:55:07;78.23;;;34.47;;
18623;SDS011;9441;51.420;7.036;2024-03-07T05:56:08;86.97;;;36.00;;
18623;SDS011;9441;51.420;7.036;2024-03-07T05:57:10;85.67;;;35.70;;
18623;SDS011;9441;51.420;7.036;2024-03-07T05:58:11;86.13;;;36.73;;
18623;SDS011;9441;51.420;7.036;2024-03-07T05:59:15;83.80;;;35.40;;
18623;SDS011;9441;51.420;7.036;2024-03-07T06:00:17;88.43;;;36.77;;
18623;SDS011;9441;51.420;7.036;2024-03-07T06:01:27;84.93;;;35.27;;
18623;SDS011;9441;51.420;7.036;2024-03-07T06:02:28;82.87;;;36.00;;
18623;SDS011;9441;51.420;7.036;2024-03-07T06:03:30;83.73;;;34.47;;
18623;SDS011;9441;51.420;7.036;2024-03-07T06:04:31;90.17;;;35.20;;
18623;SDS011;9441;51.420;7.036;2024-03-07T06:05:34;105.93;;;35.93;;
18623;SDS011;9441;51.420;7.036;2024-03-07T06:06:35;90.13;;;35.83;;
18623;SDS011;9441;51.420;7.036;2024-03-07T06:07:38;92.63;;;36.23;;